Monte Vista, CO

4:12 AM MDT on October 25, 2014 (GMT -0600)
KCOMONTE4 | Change Station
CLOSE
Current Station
Personal Weather Station
Location: Monte Vista, CO
Elevation: 7674 ft
Nearby Weather Stations

Elev 7674 ft 37.58 °N, 106.16 °W | Updated 6 seconds ago

Partly Cloudy
Partly Cloudy
33.5 °F
Feels Like 34 °F
N
2.1
Wind Variable Wind from SW
Gusts 2.1 mph

Today
High -- | Low -- °F
--% Chance of Precip.
Yesterday
High -- | Low -- °F
Precip. -- in
7:22 AM 6:14 PM
New Moon, 2% visible
Pressure 30.24 in
Visibility 10.0 miles
Clouds Clear
Windchill 34 °F
Dew Point 28 °F
Humidity 75%
Rainfall 0.00 in
Snow Depth Not available.
UV 0 out of 12
Pollen 3.00 out of 12
Air Quality Not available.
Flu Activity Sporadic
METAR KALS 250952Z AUTO 26003KT 10SM CLR 00/M04 A3041 RMK AO2 SLP240 T00001044

More Conditions Fewer Conditions

Pressure 30.24 in
Visibility 10.0 miles
Clouds Clear
Windchill 34 °F
Dew Point 28 °F
Humidity 75%
Rainfall 0.00 in
Snow Depth Not available.
UV 0 out of 12
Pollen 3.00 out of 12
Air Quality Not available.
Flu Activity Sporadic
METAR KALS 250952Z AUTO 26003KT 10SM CLR 00/M04 A3041 RMK AO2 SLP240 T00001044

More Conditions Fewer Conditions

10-Day Weather Forecast

Almanac

Astronomy

Oct. 25, 2014 Rise Set
Actual Time 7:22 AM MDT 6:14 PM MDT
Civil Twilight 6:55 AM MDT 6:40 PM MDT
Nautical Twilight 6:25 AM MDT 7:11 PM MDT
Astronomical Twilight 5:54 AM MDT 7:41 PM MDT
Moon 9:02 AM MDT 7:41 PM MDT
Length of Visible Light 11h 45m
Length of Day
10h 51m
Tomorrow will be 2m 13s shorter.
New Moon, 2% of the Moon is Illuminated
Today
New Moon
Oct 30
First Quarter
Nov 6
Full
Nov 14
Last Quarter
Nov 22
New

Today's Extremes

State Highs State Lows

Community

WunderPhotos

Upload Photos

1,764,796 photos uploaded!

Nearby

Snow Depth

Station Depth Elevation
Lily Pond 0 in 11000 ft
Wolf Creek Summit 0 in 11000 ft
Cumbres Trestle 0 in 10020 ft
Ute Creek 0 in 10650 ft
Medano Pass 1 in 9620 ft

Earthquake Activity

City Distance Mag. Time & Date
No recent earthquake activity has been reported nearby.
Minimum magnitude displayed is 2.5.

Coastal Water Temperatures

Place Temperature
No Stations Reporting

Nearby Weather Stations